Richmond, Maine
Current Conditions -  °F | °C
As of 7:53 AM on Friday 19 Dec 2014 (Local Time) from KIWI Reporting Station
Broken Clouds Broken Clouds  
Wind Chill: -3°   Ceiling: 3400
Heat Index: -1°   Visibility: 10mi
Dew Point: -6°   Wind: 5mph
Humidity: 69%   Direction: NA
Pressure: 29.9"   Gusts: NA
Location:  44.09°N, 69.8°W
Report Text: KIWI 191253Z AUTO VRB04KT 10SM BKN034 BKN050 M01/M06 A2990 RMK AO2 SLP125 T10061056
Loading
Personal Weather Stations






























Interactive Weather Map New forecast layout! Learn more

10-Day Weather Forecast

Advertisements
Track Severe Weather on mobile